Time;durP1;ratioP1;P1;durP2;ratioP2;P2;SDS_P1;SDS_P2;PMS_P1;PMS_P2;Temp;Humidity;BMP_temperature;BMP_pressure;BME280_temperature;BME280_humidity;BME280_pressure;Samples;Min_cycle;Max_cycle;Signal;HPM_P1;HPM_P2
2021/07/30 00:01:24;;;;;;;0.00;0.00;;;;;;;;;;10483575;28;20508;-24
2021/07/30 00:06:27;;;;;;;0.05;0.05;;;;;;;;;;10483270;28;20044;-25
2021/07/30 00:11:29;;;;;;;0.70;0.08;;;;;;;;;;10482035;28;20489;-25
2021/07/30 00:16:33;;;;;;;0.00;0.00;;;;;;;;;;10478827;28;20059;-25
2021/07/30 00:21:36;;;;;;;0.10;0.10;;;;;;;;;;10479244;28;20136;-25
2021/07/30 00:26:39;;;;;;;0.52;0.08;;;;;;;;;;10476796;28;20055;-24
2021/07/30 00:31:43;;;;;;;0.00;0.00;;;;;;;;;;10477039;28;20825;-24
2021/07/30 00:36:46;;;;;;;0.10;0.10;;;;;;;;;;10475677;28;20106;-25
2021/07/30 00:41:48;;;;;;;0.00;0.00;;;;;;;;;;10493760;28;20040;-25
2021/07/30 00:46:52;;;;;;;0.10;0.10;;;;;;;;;;10492374;28;20063;-26
2021/07/30 00:51:56;;;;;;;0.00;0.00;;;;;;;;;;10493148;28;20058;-25
2021/07/30 00:56:58;;;;;;;0.00;0.00;;;;;;;;;;10496566;28;20052;-24
2021/07/30 01:02:02;;;;;;;0.00;0.00;;;;;;;;;;10501749;28;20055;-24
2021/07/30 01:07:07;;;;;;;0.10;0.10;;;;;;;;;;10501189;28;20040;-25
2021/07/30 01:12:10;;;;;;;0.05;0.05;;;;;;;;;;10498401;28;20052;-25
2021/07/30 01:17:14;;;;;;;0.30;0.10;;;;;;;;;;10492375;28;20047;-25
2021/07/30 01:22:20;;;;;;;0.00;0.00;;;;;;;;;;10494178;28;20056;-27
2021/07/30 01:27:24;;;;;;;0.03;0.03;;;;;;;;;;10494127;28;20496;-24
2021/07/30 01:32:27;;;;;;;0.05;0.05;;;;;;;;;;10498270;28;20051;-25
2021/07/30 01:37:31;;;;;;;0.10;0.10;;;;;;;;;;10494399;28;20102;-25
2021/07/30 01:42:35;;;;;;;0.00;0.00;;;;;;;;;;10493714;28;20055;-24
2021/07/30 01:47:38;;;;;;;0.00;0.00;;;;;;;;;;10492284;28;20051;-25
2021/07/30 01:52:41;;;;;;;0.10;0.10;;;;;;;;;;10487505;28;20052;-25
2021/07/30 01:57:45;;;;;;;0.10;0.10;;;;;;;;;;10487781;28;20047;-25
2021/07/30 02:02:48;;;;;;;0.00;0.00;;;;;;;;;;10485937;28;20050;-25
2021/07/30 02:07:51;;;;;;;0.10;0.10;;;;;;;;;;10483889;28;20043;-25
2021/07/30 02:18:20;;;;;;;0.00;0.00;;;;;;;;;;10478778;28;20044;-24
2021/07/30 02:23:23;;;;;;;0.00;0.00;;;;;;;;;;10485883;28;20045;-24
2021/07/30 02:28:27;;;;;;;0.30;0.00;;;;;;;;;;10487044;28;20041;-25
2021/07/30 02:33:29;;;;;;;0.00;0.00;;;;;;;;;;10493845;28;20052;-25
2021/07/30 02:38:32;;;;;;;0.80;0.10;;;;;;;;;;10490056;28;20690;-25
2021/07/30 02:43:36;;;;;;;0.10;0.10;;;;;;;;;;10482677;28;20052;-25
2021/07/30 02:48:39;;;;;;;0.10;0.00;;;;;;;;;;10480924;28;20043;-24
2021/07/30 02:53:42;;;;;;;0.00;0.00;;;;;;;;;;10501262;28;20055;-23
2021/07/30 02:58:47;;;;;;;0.00;0.00;;;;;;;;;;10494347;28;20725;-23
2021/07/30 03:03:51;;;;;;;0.00;0.00;;;;;;;;;;10498276;28;20059;-24
2021/07/30 03:08:53;;;;;;;0.08;0.05;;;;;;;;;;10497698;28;20048;-24
2021/07/30 03:13:57;;;;;;;0.10;0.10;;;;;;;;;;10501614;28;20048;-24
2021/07/30 03:19:00;;;;;;;0.00;0.00;;;;;;;;;;10494016;28;20127;-24
2021/07/30 03:24:03;;;;;;;0.10;0.10;;;;;;;;;;10499733;28;20086;-23
2021/07/30 03:29:09;;;;;;;0.10;0.10;;;;;;;;;;10495618;28;20042;-24
2021/07/30 03:34:11;;;;;;;0.10;0.10;;;;;;;;;;10505925;28;20048;-23
2021/07/30 03:39:14;;;;;;;0.10;0.10;;;;;;;;;;10491888;28;20055;-23
2021/07/30 03:44:18;;;;;;;0.10;0.10;;;;;;;;;;10504313;28;20052;-24
2021/07/30 03:49:21;;;;;;;0.00;0.00;;;;;;;;;;10495170;28;20036;-23
2021/07/30 03:54:24;;;;;;;0.10;0.10;;;;;;;;;;10496634;28;20068;-23
2021/07/30 03:59:28;;;;;;;0.10;0.10;;;;;;;;;;10490145;28;20056;-24
2021/07/30 04:04:30;;;;;;;0.00;0.00;;;;;;;;;;10494276;28;20044;-23
2021/07/30 04:09:33;;;;;;;0.10;0.10;;;;;;;;;;10495547;28;20044;-24
2021/07/30 04:14:37;;;;;;;0.10;0.10;;;;;;;;;;10496573;28;20044;-23
2021/07/30 04:19:43;;;;;;;0.10;0.10;;;;;;;;;;10494433;28;20075;-25
2021/07/30 04:24:46;;;;;;;0.10;0.10;;;;;;;;;;10501337;28;20058;-23
2021/07/30 04:29:53;;;;;;;0.10;0.10;;;;;;;;;;10501331;28;20037;-24
2021/07/30 04:34:56;;;;;;;0.10;0.10;;;;;;;;;;10489279;28;20074;-24
2021/07/30 04:39:59;;;;;;;0.10;0.10;;;;;;;;;;10493982;28;20049;-24
2021/07/30 04:45:03;;;;;;;0.17;0.10;;;;;;;;;;10506468;28;20485;-24
2021/07/30 04:50:06;;;;;;;0.10;0.10;;;;;;;;;;10499140;28;20386;-24
2021/07/30 04:55:09;;;;;;;0.00;0.00;;;;;;;;;;10503514;28;20056;-25
2021/07/30 05:00:14;;;;;;;0.22;0.10;;;;;;;;;;10502315;28;20559;-23
2021/07/30 05:05:16;;;;;;;0.10;0.10;;;;;;;;;;10496203;28;20059;-25
2021/07/30 05:10:19;;;;;;;0.10;0.10;;;;;;;;;;10499140;28;20512;-24
2021/07/30 05:15:23;;;;;;;0.10;0.10;;;;;;;;;;10496641;28;20032;-24
2021/07/30 05:20:26;;;;;;;0.00;0.00;;;;;;;;;;10489061;28;20444;-24
2021/07/30 05:25:29;;;;;;;0.00;0.00;;;;;;;;;;10493391;28;20043;-24
2021/07/30 05:30:35;;;;;;;0.10;0.10;;;;;;;;;;10496205;28;20052;-24
2021/07/30 05:35:37;;;;;;;0.10;0.10;;;;;;;;;;10491759;28;20482;-24
2021/07/30 05:40:42;;;;;;;0.10;0.10;;;;;;;;;;10488253;28;20123;-23
2021/07/30 05:45:46;;;;;;;0.95;0.10;;;;;;;;;;10485605;28;20053;-24
2021/07/30 05:50:49;;;;;;;0.00;0.00;;;;;;;;;;10485925;28;20055;-24
2021/07/30 05:55:52;;;;;;;0.10;0.10;;;;;;;;;;10480533;28;20044;-23
2021/07/30 06:00:56;;;;;;;0.10;0.10;;;;;;;;;;10481087;28;20048;-24
2021/07/30 06:05:59;;;;;;;0.10;0.10;;;;;;;;;;10481280;28;20147;-24
2021/07/30 06:11:03;;;;;;;0.00;0.00;;;;;;;;;;10477197;28;20139;-24
2021/07/30 06:16:09;;;;;;;0.00;0.00;;;;;;;;;;10501498;28;20051;-24
2021/07/30 06:21:32;;;;;;;0.10;0.10;;;;;;;;;;10504895;28;20060;-25
2021/07/30 06:26:35;;;;;;;0.00;0.00;;;;;;;;;;10496979;28;20119;-24
2021/07/30 06:31:41;;;;;;;0.00;0.00;;;;;;;;;;10494315;28;20047;-23
2021/07/30 06:36:44;;;;;;;0.00;0.00;;;;;;;;;;10502750;28;20115;-24
2021/07/30 06:41:46;;;;;;;0.10;0.10;;;;;;;;;;10498996;28;20036;-23
2021/07/30 06:46:50;;;;;;;0.00;0.00;;;;;;;;;;10500255;28;20051;-24
2021/07/30 06:51:53;;;;;;;0.10;0.10;;;;;;;;;;10501394;28;20128;-24
2021/07/30 06:56:56;;;;;;;0.03;0.03;;;;;;;;;;10500827;28;20055;-23
2021/07/30 07:02:02;;;;;;;0.00;0.00;;;;;;;;;;10501122;28;20064;-24
2021/07/30 07:07:05;;;;;;;0.28;0.10;;;;;;;;;;10495481;28;20041;-24
2021/07/30 07:12:08;;;;;;;0.00;0.00;;;;;;;;;;10500689;28;20051;-24
2021/07/30 07:17:12;;;;;;;0.00;0.00;;;;;;;;;;10496610;28;20043;-23
2021/07/30 07:22:14;;;;;;;0.08;0.08;;;;;;;;;;10496916;28;20428;-23
2021/07/30 07:27:17;;;;;;;0.00;0.00;;;;;;;;;;10494451;28;20036;-24
2021/07/30 07:32:21;;;;;;;0.00;0.00;;;;;;;;;;10491375;28;20044;-26
2021/07/30 07:37:24;;;;;;;1.10;0.03;;;;;;;;;;10485763;28;20037;-24
2021/07/30 07:42:27;;;;;;;0.00;0.00;;;;;;;;;;10486449;28;20048;-24
2021/07/30 07:47:31;;;;;;;0.00;0.00;;;;;;;;;;10483872;28;20040;-24
2021/07/30 07:52:34;;;;;;;0.00;0.00;;;;;;;;;;10484632;28;20055;-24
2021/07/30 07:57:40;;;;;;;0.20;0.10;;;;;;;;;;10480458;28;20424;-24
2021/07/30 08:02:44;;;;;;;0.00;0.00;;;;;;;;;;10481959;28;20044;-23
2021/07/30 08:07:47;;;;;;;0.00;0.00;;;;;;;;;;10480104;28;20052;-23
2021/07/30 08:12:49;;;;;;;0.00;0.00;;;;;;;;;;10477665;28;20053;-22
2021/07/30 08:17:54;;;;;;;0.00;0.00;;;;;;;;;;10481701;28;20037;-25
2021/07/30 08:22:57;;;;;;;0.25;0.00;;;;;;;;;;10484399;28;20059;-23
2021/07/30 08:28:03;;;;;;;0.00;0.00;;;;;;;;;;10488254;28;20051;-23
2021/07/30 08:33:06;;;;;;;0.20;0.00;;;;;;;;;;10505330;28;20047;-23
2021/07/30 08:38:09;;;;;;;0.00;0.00;;;;;;;;;;10489785;28;20513;-24
2021/07/30 08:43:15;;;;;;;0.00;0.00;;;;;;;;;;10492456;28;20055;-23
2021/07/30 08:48:19;;;;;;;0.00;0.00;;;;;;;;;;10503891;28;20032;-24
2021/07/30 08:53:24;;;;;;;0.00;0.00;;;;;;;;;;10507711;28;20048;-23
2021/07/30 08:58:26;;;;;;;0.20;0.00;;;;;;;;;;10512444;28;20054;-24
2021/07/30 09:03:37;;;;;;;0.03;0.03;;;;;;;;;;10506707;28;20040;-23
2021/07/30 09:08:40;;;;;;;0.30;0.00;;;;;;;;;;10498829;28;20052;-23
2021/07/30 09:13:43;;;;;;;0.20;0.00;;;;;;;;;;10499076;28;20060;-23
2021/07/30 09:18:47;;;;;;;0.00;0.00;;;;;;;;;;10498703;28;20044;-23
2021/07/30 09:23:51;;;;;;;0.00;0.00;;;;;;;;;;10501037;28;20059;-24
2021/07/30 09:28:57;;;;;;;0.05;0.05;;;;;;;;;;10502473;28;20052;-23
2021/07/30 09:34:15;;;;;;;0.00;0.00;;;;;;;;;;10504017;28;20044;-23
2021/07/30 09:39:18;;;;;;;0.00;0.00;;;;;;;;;;10494040;28;20054;-24
2021/07/30 09:44:21;;;;;;;0.00;0.00;;;;;;;;;;10499566;28;20052;-23
2021/07/30 09:49:35;;;;;;;0.00;0.00;;;;;;;;;;10495854;28;20036;-24
2021/07/30 09:54:41;;;;;;;0.00;0.00;;;;;;;;;;10489490;28;20051;-24
2021/07/30 09:59:44;;;;;;;0.00;0.00;;;;;;;;;;10490828;28;20051;-23
2021/07/30 10:04:50;;;;;;;0.08;0.00;;;;;;;;;;10492943;28;20482;-23
2021/07/30 10:10:03;;;;;;;0.20;0.00;;;;;;;;;;10486617;28;20058;-24
2021/07/30 10:15:07;;;;;;;0.55;0.10;;;;;;;;;;10487113;28;20044;-23
2021/07/30 10:20:11;;;;;;;0.00;0.00;;;;;;;;;;10487304;28;20094;-24
2021/07/30 10:25:17;;;;;;;0.00;0.00;;;;;;;;;;10481949;28;20041;-23
2021/07/30 10:30:20;;;;;;;0.00;0.00;;;;;;;;;;10484295;28;20051;-24
2021/07/30 10:35:43;;;;;;;0.00;0.00;;;;;;;;;;10482835;28;20053;-24
2021/07/30 10:41:06;;;;;;;0.08;0.00;;;;;;;;;;10475931;28;20043;-24
2021/07/30 10:46:12;;;;;;;0.00;0.00;;;;;;;;;;10479592;28;20406;-24
2021/07/30 10:51:27;;;;;;;0.00;0.00;;;;;;;;;;10476216;28;20121;-24
2021/07/30 10:56:50;;;;;;;0.00;0.00;;;;;;;;;;10496315;28;20054;-24
2021/07/30 11:01:54;;;;;;;0.10;0.00;;;;;;;;;;10491344;28;20048;-24
2021/07/30 11:07:00;;;;;;;0.00;0.00;;;;;;;;;;10497982;28;20050;-24
2021/07/30 11:12:03;;;;;;;0.10;0.00;;;;;;;;;;10509882;28;20046;-23
2021/07/30 11:17:07;;;;;;;0.00;0.00;;;;;;;;;;10509038;28;20123;-25
2021/07/30 11:22:12;;;;;;;0.00;0.00;;;;;;;;;;10505981;28;20052;-23
2021/07/30 11:27:16;;;;;;;0.00;0.00;;;;;;;;;;10509861;28;20497;-24
2021/07/30 11:32:19;;;;;;;0.00;0.00;;;;;;;;;;10496174;28;20052;-23
2021/07/30 11:37:26;;;;;;;0.00;0.00;;;;;;;;;;10502870;28;20052;-23
2021/07/30 11:42:30;;;;;;;0.00;0.00;;;;;;;;;;10487527;28;20068;-24
2021/07/30 11:47:34;;;;;;;0.00;0.00;;;;;;;;;;10497662;28;20040;-24
2021/07/30 11:52:39;;;;;;;0.10;0.00;;;;;;;;;;10497520;28;20053;-25
2021/07/30 11:57:41;;;;;;;0.00;0.00;;;;;;;;;;10494208;28;20048;-24
2021/07/30 12:02:44;;;;;;;0.00;0.00;;;;;;;;;;10488386;28;20060;-24
2021/07/30 12:07:50;;;;;;;0.00;0.00;;;;;;;;;;10495973;28;20079;-23
2021/07/30 12:12:53;;;;;;;0.00;0.00;;;;;;;;;;10482595;28;20513;-24
2021/07/30 12:17:58;;;;;;;0.00;0.00;;;;;;;;;;10487428;28;20106;-23
2021/07/30 12:23:06;;;;;;;0.00;0.00;;;;;;;;;;10486127;28;20405;-23
2021/07/30 12:28:11;;;;;;;0.00;0.00;;;;;;;;;;10485151;28;20056;-24
2021/07/30 12:33:23;;;;;;;0.00;0.00;;;;;;;;;;10487734;28;20047;-24
2021/07/30 12:38:27;;;;;;;0.00;0.00;;;;;;;;;;10478663;28;20043;-25
2021/07/30 12:43:37;;;;;;;0.00;0.00;;;;;;;;;;10483832;28;20055;-24
2021/07/30 12:48:47;;;;;;;1.02;0.00;;;;;;;;;;10480886;28;20043;-24
2021/07/30 12:54:01;;;;;;;0.00;0.00;;;;;;;;;;10480743;28;20074;-25
2021/07/30 12:59:04;;;;;;;0.00;0.00;;;;;;;;;;10477214;28;20056;-25
2021/07/30 13:04:08;;;;;;;0.08;0.00;;;;;;;;;;10484347;28;20040;-25
2021/07/30 13:09:12;;;;;;;0.00;0.00;;;;;;;;;;10485754;28;20051;-25
2021/07/30 13:14:15;;;;;;;0.00;0.00;;;;;;;;;;10485613;28;20052;-25
2021/07/30 13:19:18;;;;;;;0.00;0.00;;;;;;;;;;10478797;28;20409;-25
2021/07/30 13:24:22;;;;;;;0.00;0.00;;;;;;;;;;10485764;28;20054;-25
2021/07/30 13:29:24;;;;;;;0.00;0.00;;;;;;;;;;10504644;28;20051;-25
2021/07/30 13:34:27;;;;;;;0.00;0.00;;;;;;;;;;10520035;28;20060;-26
2021/07/30 13:39:31;;;;;;;0.00;0.00;;;;;;;;;;10503118;28;20772;-26
2021/07/30 13:44:34;;;;;;;0.00;0.00;;;;;;;;;;10508069;28;20036;-25
2021/07/30 13:49:37;;;;;;;0.00;0.00;;;;;;;;;;10501416;28;20043;-25
2021/07/30 13:54:41;;;;;;;0.00;0.00;;;;;;;;;;10495708;28;20040;-26
2021/07/30 13:59:44;;;;;;;0.00;0.00;;;;;;;;;;10495325;28;20047;-26
2021/07/30 14:04:47;;;;;;;0.10;0.00;;;;;;;;;;10506254;28;20045;-25
2021/07/30 14:09:51;;;;;;;0.00;0.00;;;;;;;;;;10491337;28;20052;-25
2021/07/30 14:14:53;;;;;;;0.08;0.00;;;;;;;;;;10495099;28;20055;-25
2021/07/30 14:19:56;;;;;;;0.55;0.00;;;;;;;;;;10492802;28;20412;-26
2021/07/30 14:25:00;;;;;;;0.00;0.00;;;;;;;;;;10492910;28;20148;-26
2021/07/30 14:30:03;;;;;;;0.00;0.00;;;;;;;;;;10487397;28;20040;-27
2021/07/30 14:35:11;;;;;;;0.00;0.00;;;;;;;;;;10492896;28;20624;-26
2021/07/30 14:40:15;;;;;;;0.00;0.00;;;;;;;;;;10486118;28;20040;-26
2021/07/30 14:45:18;;;;;;;0.00;0.00;;;;;;;;;;10483276;28;21363;-26
2021/07/30 14:50:22;;;;;;;0.00;0.00;;;;;;;;;;10483165;28;20044;-27
2021/07/30 14:55:26;;;;;;;0.00;0.00;;;;;;;;;;10491088;28;20040;-27
2021/07/30 15:00:29;;;;;;;0.00;0.00;;;;;;;;;;10492544;28;20036;-27
2021/07/30 15:05:32;;;;;;;0.00;0.00;;;;;;;;;;10496515;28;20046;-26
2021/07/30 15:10:42;;;;;;;0.00;0.00;;;;;;;;;;10472953;28;20043;-25
2021/07/30 15:15:48;;;;;;;0.00;0.00;;;;;;;;;;10484392;28;20816;-25
2021/07/30 15:20:51;;;;;;;0.10;0.00;;;;;;;;;;10492514;28;20052;-25
2021/07/30 15:25:55;;;;;;;0.08;0.00;;;;;;;;;;10507401;28;20395;-25
2021/07/30 15:30:58;;;;;;;0.00;0.00;;;;;;;;;;10501737;28;20054;-25
2021/07/30 15:36:08;;;;;;;0.00;0.00;;;;;;;;;;10499005;28;20043;-25
2021/07/30 15:41:15;;;;;;;0.00;0.00;;;;;;;;;;10488667;28;20044;-25
2021/07/30 15:46:18;;;;;;;0.00;0.00;;;;;;;;;;10490341;28;20079;-26
2021/07/30 15:51:20;;;;;;;0.28;0.00;;;;;;;;;;10485187;28;20060;-25
2021/07/30 15:56:24;;;;;;;0.00;0.00;;;;;;;;;;10496997;28;20040;-26
2021/07/30 16:01:27;;;;;;;0.10;0.00;;;;;;;;;;10490591;28;20056;-25
2021/07/30 16:06:30;;;;;;;0.10;0.00;;;;;;;;;;10489147;28;20126;-26
2021/07/30 16:11:34;;;;;;;0.08;0.00;;;;;;;;;;10488331;28;20046;-25
2021/07/30 16:16:37;;;;;;;0.40;0.00;;;;;;;;;;10489319;28;20066;-25
2021/07/30 16:21:39;;;;;;;0.15;0.00;;;;;;;;;;10486542;28;20048;-26
2021/07/30 16:26:43;;;;;;;0.00;0.00;;;;;;;;;;10488218;28;20059;-25
2021/07/30 16:31:46;;;;;;;0.00;0.00;;;;;;;;;;10486336;28;20032;-28
2021/07/30 16:36:49;;;;;;;0.00;0.00;;;;;;;;;;10482301;28;20040;-26
2021/07/30 16:41:53;;;;;;;0.00;0.00;;;;;;;;;;10486497;28;20146;-26
2021/07/30 16:46:56;;;;;;;0.10;0.00;;;;;;;;;;10487656;28;20049;-26
2021/07/30 16:51:58;;;;;;;0.00;0.00;;;;;;;;;;10486057;28;20037;-26
2021/07/30 16:57:02;;;;;;;0.00;0.00;;;;;;;;;;10478084;28;20051;-27
2021/07/30 17:02:05;;;;;;;0.00;0.00;;;;;;;;;;10479238;28;20378;-28
2021/07/30 17:07:08;;;;;;;0.68;0.00;;;;;;;;;;10516787;28;20622;-26
2021/07/30 17:12:12;;;;;;;0.00;0.00;;;;;;;;;;10508080;28;20036;-27
2021/07/30 17:17:15;;;;;;;0.00;0.00;;;;;;;;;;10507822;28;20048;-28
2021/07/30 17:22:17;;;;;;;0.00;0.00;;;;;;;;;;10504621;28;20044;-27
2021/07/30 17:27:21;;;;;;;0.00;0.00;;;;;;;;;;10509180;28;20047;-26
2021/07/30 17:32:24;;;;;;;0.17;0.00;;;;;;;;;;10510813;28;20044;-26
2021/07/30 17:37:27;;;;;;;0.00;0.00;;;;;;;;;;10511494;28;20047;-26
2021/07/30 17:42:31;;;;;;;0.00;0.00;;;;;;;;;;10493431;28;20047;-27
2021/07/30 17:47:34;;;;;;;0.20;0.00;;;;;;;;;;10502157;28;20478;-28
2021/07/30 17:52:37;;;;;;;0.08;0.00;;;;;;;;;;10500195;28;20064;-27
2021/07/30 17:57:41;;;;;;;0.10;0.00;;;;;;;;;;10487374;28;20054;-28
2021/07/30 18:02:44;;;;;;;0.00;0.00;;;;;;;;;;10493417;28;20062;-28
2021/07/30 18:07:47;;;;;;;0.00;0.00;;;;;;;;;;10491906;28;20054;-27
2021/07/30 18:12:51;;;;;;;0.00;0.00;;;;;;;;;;10487716;28;20044;-27
2021/07/30 18:17:53;;;;;;;0.00;0.00;;;;;;;;;;10487055;28;20044;-27
2021/07/30 18:22:56;;;;;;;0.00;0.00;;;;;;;;;;10492653;28;20064;-29
2021/07/30 18:28:00;;;;;;;0.10;0.00;;;;;;;;;;10489444;28;20119;-28
2021/07/30 18:33:03;;;;;;;0.10;0.00;;;;;;;;;;10487071;28;20064;-28
2021/07/30 18:38:06;;;;;;;0.00;0.00;;;;;;;;;;10486203;28;20052;-28
2021/07/30 18:43:11;;;;;;;0.00;0.00;;;;;;;;;;10485960;28;20037;-27
2021/07/30 18:48:14;;;;;;;0.00;0.00;;;;;;;;;;10480670;28;20132;-28
2021/07/30 18:53:17;;;;;;;0.00;0.00;;;;;;;;;;10481314;28;20051;-28
2021/07/30 18:58:22;;;;;;;0.00;0.00;;;;;;;;;;10476979;28;20036;-27
2021/07/30 19:03:26;;;;;;;0.00;0.00;;;;;;;;;;10474823;28;20053;-27
2021/07/30 19:08:29;;;;;;;0.00;0.00;;;;;;;;;;10479446;28;20135;-27
2021/07/30 19:13:33;;;;;;;0.00;0.00;;;;;;;;;;10492337;28;20041;-27
2021/07/30 19:18:37;;;;;;;0.20;0.00;;;;;;;;;;10481264;28;20118;-26
2021/07/30 19:23:39;;;;;;;0.05;0.00;;;;;;;;;;10485925;28;20056;-27
2021/07/30 19:28:45;;;;;;;0.00;0.00;;;;;;;;;;10482043;28;20036;-26
2021/07/30 19:33:48;;;;;;;0.00;0.00;;;;;;;;;;10479693;28;20033;-27
2021/07/30 19:38:51;;;;;;;0.43;0.00;;;;;;;;;;10485614;28;20085;-27
2021/07/30 19:43:55;;;;;;;0.00;0.00;;;;;;;;;;10489932;28;20055;-26
2021/07/30 19:48:59;;;;;;;0.00;0.00;;;;;;;;;;10492290;28;20059;-26
2021/07/30 19:54:03;;;;;;;0.00;0.00;;;;;;;;;;10491139;28;20040;-26
2021/07/30 19:59:07;;;;;;;0.00;0.00;;;;;;;;;;10495224;28;20044;-27
2021/07/30 20:04:10;;;;;;;0.00;0.00;;;;;;;;;;10489656;28;20052;-27
2021/07/30 20:09:12;;;;;;;0.00;0.00;;;;;;;;;;10484814;28;20053;-26
2021/07/30 20:14:17;;;;;;;0.00;0.00;;;;;;;;;;10483927;28;20052;-26
2021/07/30 20:19:19;;;;;;;0.40;0.00;;;;;;;;;;10478640;28;20059;-26
2021/07/30 20:24:22;;;;;;;0.00;0.00;;;;;;;;;;10484173;28;20074;-25
2021/07/30 20:29:27;;;;;;;0.00;0.00;;;;;;;;;;10481937;28;20050;-25
2021/07/30 20:34:29;;;;;;;0.05;0.00;;;;;;;;;;10481195;28;20497;-26
2021/07/30 20:39:32;;;;;;;0.10;0.00;;;;;;;;;;10476927;28;20135;-25
2021/07/30 20:44:36;;;;;;;0.10;0.10;;;;;;;;;;10478280;28;20128;-25
2021/07/30 20:49:39;;;;;;;0.00;0.00;;;;;;;;;;10477132;28;20044;-26
2021/07/30 20:54:42;;;;;;;0.03;0.00;;;;;;;;;;10477919;28;20053;-26
2021/07/30 20:59:46;;;;;;;0.05;0.00;;;;;;;;;;10504716;28;20493;-26
2021/07/30 21:04:50;;;;;;;0.00;0.00;;;;;;;;;;10507969;28;20036;-26
2021/07/30 21:09:52;;;;;;;0.10;0.10;;;;;;;;;;10506494;28;20044;-25
2021/07/30 21:14:56;;;;;;;0.10;0.10;;;;;;;;;;10499260;28;20043;-25
2021/07/30 21:19:59;;;;;;;0.05;0.00;;;;;;;;;;10503452;28;20044;-25
2021/07/30 21:25:02;;;;;;;0.35;0.00;;;;;;;;;;10490529;28;20053;-25
2021/07/30 21:30:07;;;;;;;0.13;0.00;;;;;;;;;;10502066;28;20056;-26
2021/07/30 21:35:11;;;;;;;0.08;0.00;;;;;;;;;;10501874;28;20044;-25
2021/07/30 21:40:14;;;;;;;0.40;0.00;;;;;;;;;;10495725;28;20041;-25
2021/07/30 21:45:18;;;;;;;0.10;0.10;;;;;;;;;;10490730;28;20071;-26
2021/07/30 21:50:21;;;;;;;0.03;0.03;;;;;;;;;;10493825;28;20485;-27
2021/07/30 21:55:24;;;;;;;0.00;0.00;;;;;;;;;;10491119;28;20046;-27
2021/07/30 22:00:28;;;;;;;0.13;0.05;;;;;;;;;;10485604;28;20037;-27
